createdAt,value
2022-11-20T00:00:10.444Z,0.3
2022-11-20T00:00:30.471Z,0
2022-11-20T00:00:50.490Z,0.1
2022-11-20T00:01:10.514Z,0.1
2022-11-20T00:01:30.544Z,0
2022-11-20T00:01:50.652Z,0.3
2022-11-20T00:02:10.644Z,0.3
2022-11-20T00:02:30.613Z,0.3
2022-11-20T00:02:50.657Z,0.4
2022-11-20T00:03:10.713Z,0.7
2022-11-20T00:03:30.773Z,0.8
2022-11-20T00:03:50.821Z,0.8
2022-11-20T00:04:10.856Z,0.8
2022-11-20T00:04:30.985Z,0.7
2022-11-20T00:04:50.945Z,1.4
2022-11-20T00:05:10.978Z,0.9
2022-11-20T00:05:31.005Z,0.6
2022-11-20T00:05:51.049Z,0.9
2022-11-20T00:06:11.067Z,1.1
2022-11-20T00:06:31.102Z,0.9
2022-11-20T00:06:51.140Z,0.9
2022-11-20T00:07:11.260Z,0.7
2022-11-20T00:07:31.257Z,1.6
2022-11-20T00:07:51.239Z,1.1
2022-11-20T00:08:11.231Z,1.4
2022-11-20T00:08:31.274Z,0.7
2022-11-20T00:08:51.275Z,0.7
2022-11-20T00:09:11.308Z,0.1
2022-11-20T00:09:31.336Z,0.3
2022-11-20T00:09:51.356Z,1.3
2022-11-20T00:10:11.388Z,1.2
2022-11-20T00:10:31.417Z,1
2022-11-20T00:10:51.457Z,0.6
2022-11-20T00:11:15.512Z,1
2022-11-20T00:11:31.528Z,0.6
2022-11-20T00:11:51.569Z,0.7
2022-11-20T00:12:11.615Z,0.6
2022-11-20T00:12:31.649Z,1.2
2022-11-20T00:12:51.679Z,0.7
2022-11-20T00:13:11.767Z,0.6
2022-11-20T00:13:31.746Z,1
2022-11-20T00:13:51.772Z,1.3
2022-11-20T00:14:11.776Z,0.4
2022-11-20T00:14:31.808Z,0.5
2022-11-20T00:14:51.844Z,1.6
2022-11-20T00:15:11.864Z,1.3
2022-11-20T00:15:31.894Z,0.4
2022-11-20T00:15:51.916Z,0.2
2022-11-20T00:16:11.944Z,0.1
2022-11-20T00:16:31.987Z,0.1
2022-11-20T00:16:52.011Z,0.3
2022-11-20T00:17:12.051Z,0.6
2022-11-20T00:17:32.125Z,0.6
2022-11-20T00:17:52.142Z,0.8
2022-11-20T00:18:12.210Z,0.3
2022-11-20T00:18:32.230Z,0.4
2022-11-20T00:18:52.279Z,0.3
2022-11-20T00:19:12.323Z,0.1
2022-11-20T00:19:32.400Z,0
2022-11-20T00:19:52.427Z,0
2022-11-20T00:20:12.456Z,0.1
2022-11-20T00:20:32.478Z,0.2
2022-11-20T00:20:52.512Z,0.2
2022-11-20T00:21:12.543Z,0.2
2022-11-20T00:21:32.582Z,0.4
2022-11-20T00:21:52.630Z,0.7
2022-11-20T00:22:12.690Z,0.8
2022-11-20T00:22:32.729Z,0.6
2022-11-20T00:22:52.778Z,0.7
2022-11-20T00:23:12.807Z,0.2
2022-11-20T00:23:32.838Z,0.3
2022-11-20T00:23:54.917Z,0.2
2022-11-20T00:24:12.912Z,0.3
2022-11-20T00:24:32.926Z,0.2
2022-11-20T00:24:52.950Z,0
2022-11-20T00:25:13.047Z,0
2022-11-20T00:25:33.066Z,0
2022-11-20T00:25:53.091Z,0
2022-11-20T00:26:13.112Z,0
2022-11-20T00:26:33.144Z,0
2022-11-20T00:26:53.160Z,0
2022-11-20T00:27:13.224Z,0
2022-11-20T00:27:33.263Z,0
2022-11-20T00:27:53.282Z,0
2022-11-20T00:28:13.328Z,0
2022-11-20T00:28:33.357Z,0
2022-11-20T00:28:53.375Z,0
2022-11-20T00:29:13.410Z,0
2022-11-20T00:29:33.525Z,0
2022-11-20T00:29:53.514Z,0
2022-11-20T00:30:15.017Z,0
2022-11-20T00:30:33.547Z,0
2022-11-20T00:30:53.593Z,0
2022-11-20T00:31:13.653Z,0
2022-11-20T00:31:33.690Z,0
2022-11-20T00:31:53.725Z,0
2022-11-20T00:32:13.731Z,0
2022-11-20T00:32:33.760Z,0
2022-11-20T00:32:53.815Z,0
2022-11-20T00:33:13.839Z,0
2022-11-20T00:33:33.919Z,0
2022-11-20T00:33:53.927Z,0
2022-11-20T00:34:13.957Z,0
2022-11-20T00:34:34.079Z,0
2022-11-20T00:34:54.052Z,0
2022-11-20T00:35:14.073Z,0
2022-11-20T00:35:34.114Z,0
2022-11-20T00:35:54.149Z,0
2022-11-20T00:36:14.184Z,0
2022-11-20T00:36:34.218Z,0
2022-11-20T00:36:54.222Z,0
2022-11-20T00:37:14.258Z,0
2022-11-20T00:37:34.299Z,0
2022-11-20T00:37:54.319Z,0
2022-11-20T00:38:14.352Z,0
2022-11-20T00:38:34.379Z,0
2022-11-20T00:38:54.473Z,0
2022-11-20T00:39:14.442Z,0
2022-11-20T00:39:34.473Z,0
2022-11-20T00:39:54.494Z,0
2022-11-20T00:40:14.512Z,0
2022-11-20T00:40:34.561Z,0
2022-11-20T00:40:54.824Z,0
2022-11-20T00:41:14.613Z,0
2022-11-20T00:41:34.657Z,0
2022-11-20T00:41:54.688Z,0
2022-11-20T00:42:14.705Z,0
2022-11-20T00:42:34.756Z,0
2022-11-20T00:42:54.782Z,0
2022-11-20T00:43:14.809Z,0
2022-11-20T00:43:34.861Z,0
2022-11-20T00:43:54.988Z,0
2022-11-20T00:44:14.947Z,0
2022-11-20T00:44:34.996Z,0
2022-11-20T00:44:55.082Z,0
2022-11-20T00:45:15.043Z,0
2022-11-20T00:45:35.101Z,0
2022-11-20T00:45:55.139Z,0
2022-11-20T00:46:15.168Z,0
2022-11-20T00:46:35.184Z,0
2022-11-20T00:46:55.214Z,0
2022-11-20T00:47:15.241Z,0
2022-11-20T00:47:35.284Z,0
2022-11-20T00:47:55.485Z,0
2022-11-20T00:48:15.333Z,0
2022-11-20T00:48:35.392Z,0
2022-11-20T00:48:55.409Z,0
2022-11-20T00:49:15.441Z,0
2022-11-20T00:49:35.481Z,0
2022-11-20T00:49:55.509Z,0
2022-11-20T00:50:15.542Z,0
2022-11-20T00:50:35.590Z,0
2022-11-20T00:50:55.611Z,0
2022-11-20T00:51:15.649Z,0
2022-11-20T00:51:35.678Z,0
2022-11-20T00:51:55.755Z,0
2022-11-20T00:52:15.722Z,0
2022-11-20T00:52:35.769Z,0
2022-11-20T00:52:55.816Z,0
2022-11-20T00:53:15.845Z,0
2022-11-20T00:53:35.878Z,0
2022-11-20T00:53:55.908Z,0
2022-11-20T00:54:15.929Z,0
2022-11-20T00:54:35.966Z,0
2022-11-20T00:54:56.002Z,0
2022-11-20T00:55:16.040Z,0
2022-11-20T00:55:36.070Z,0
2022-11-20T00:55:56.100Z,0
2022-11-20T00:56:16.122Z,0
2022-11-20T00:56:36.149Z,0
2022-11-20T00:56:56.205Z,0
2022-11-20T00:57:16.235Z,0
2022-11-20T00:57:36.267Z,0
2022-11-20T00:57:56.283Z,0
2022-11-20T00:58:16.313Z,0
2022-11-20T00:58:36.338Z,0
2022-11-20T00:58:56.363Z,0
2022-11-20T00:59:16.397Z,0
2022-11-20T00:59:36.420Z,0
2022-11-20T00:59:56.497Z,0
2022-11-20T01:00:16.521Z,0
2022-11-20T01:00:36.534Z,0
2022-11-20T01:00:56.609Z,0
2022-11-20T01:01:16.769Z,0
2022-11-20T01:01:36.722Z,0
2022-11-20T01:01:56.675Z,0
2022-11-20T01:02:16.700Z,0
2022-11-20T01:02:36.742Z,0
2022-11-20T01:02:56.781Z,0
2022-11-20T01:03:16.831Z,0
2022-11-20T01:03:36.866Z,0
2022-11-20T01:03:56.897Z,0
2022-11-20T01:04:16.940Z,0
2022-11-20T01:04:37.056Z,0
2022-11-20T01:04:57.017Z,0
2022-11-20T01:05:17.061Z,0
2022-11-20T01:05:37.117Z,0
2022-11-20T01:05:57.198Z,0
2022-11-20T01:06:17.249Z,0
2022-11-20T01:06:37.282Z,0
2022-11-20T01:06:57.410Z,0
2022-11-20T01:07:17.381Z,0
2022-11-20T01:07:37.481Z,0
2022-11-20T01:07:57.416Z,0
2022-11-20T01:08:17.442Z,0
2022-11-20T01:08:37.460Z,0
2022-11-20T01:08:57.486Z,0
2022-11-20T01:09:17.504Z,0
2022-11-20T01:09:37.537Z,0
2022-11-20T01:09:57.562Z,0
2022-11-20T01:10:17.595Z,0
2022-11-20T01:10:37.617Z,0
2022-11-20T01:10:57.653Z,0
2022-11-20T01:11:17.682Z,0
2022-11-20T01:11:37.719Z,0
2022-11-20T01:11:57.761Z,0
2022-11-20T01:12:17.814Z,0
2022-11-20T01:12:37.861Z,0
2022-11-20T01:12:57.916Z,0
2022-11-20T01:13:22.842Z,0
2022-11-20T01:13:37.963Z,0
2022-11-20T01:13:57.999Z,0
2022-11-20T01:14:18.017Z,0
2022-11-20T01:14:38.048Z,0
2022-11-20T01:14:58.166Z,0
2022-11-20T01:15:18.110Z,0
2022-11-20T01:15:38.140Z,0
2022-11-20T01:15:58.191Z,0
2022-11-20T01:16:18.213Z,0
2022-11-20T01:16:38.238Z,0
2022-11-20T01:16:58.270Z,0
2022-11-20T01:17:18.299Z,0
2022-11-20T01:17:38.328Z,0
2022-11-20T01:17:58.381Z,0
2022-11-20T01:18:18.421Z,0
2022-11-20T01:18:38.484Z,0
2022-11-20T01:18:58.517Z,0
2022-11-20T01:19:18.641Z,0
2022-11-20T01:19:38.603Z,0
2022-11-20T01:19:58.611Z,0
2022-11-20T01:20:18.630Z,0
2022-11-20T01:20:38.656Z,0
2022-11-20T01:20:58.691Z,0
2022-11-20T01:21:18.719Z,0
2022-11-20T01:21:38.752Z,0
2022-11-20T01:21:58.811Z,0
2022-11-20T01:22:18.861Z,0
2022-11-20T01:22:38.890Z,0
2022-11-20T01:22:58.903Z,0.1
2022-11-20T01:23:18.935Z,0
2022-11-20T01:23:38.963Z,0.2
2022-11-20T01:23:58.984Z,0.2
2022-11-20T01:24:19.043Z,0.4
2022-11-20T01:24:39.055Z,0.9
2022-11-20T01:24:59.083Z,0.6
2022-11-20T01:25:19.114Z,0.5
2022-11-20T01:25:39.136Z,0.9
2022-11-20T01:25:59.169Z,0.9
2022-11-20T01:26:19.199Z,0.2
2022-11-20T01:26:39.243Z,0.5
2022-11-20T01:26:59.256Z,0.2
2022-11-20T01:27:19.306Z,0
2022-11-20T01:27:39.343Z,0.2
2022-11-20T01:27:59.366Z,0.7
2022-11-20T01:28:19.408Z,0.1
2022-11-20T01:28:39.435Z,0.2
2022-11-20T01:28:59.504Z,0
2022-11-20T01:29:19.933Z,0.3
2022-11-20T01:29:39.582Z,0.3
2022-11-20T01:30:01.265Z,0.3
2022-11-20T01:30:19.682Z,0.1
2022-11-20T01:30:39.707Z,0
2022-11-20T01:30:59.753Z,0
2022-11-20T01:31:19.801Z,0
2022-11-20T01:31:39.835Z,0
2022-11-20T01:31:59.873Z,0.3
2022-11-20T01:32:19.892Z,0
2022-11-20T01:32:39.947Z,0
2022-11-20T01:32:59.998Z,0
2022-11-20T01:33:20.078Z,0
2022-11-20T01:33:40.107Z,0
2022-11-20T01:34:00.126Z,0
2022-11-20T01:34:20.298Z,0
2022-11-20T01:34:40.226Z,0
2022-11-20T01:35:00.244Z,0
2022-11-20T01:35:20.285Z,0
2022-11-20T01:35:40.378Z,0
2022-11-20T01:36:00.405Z,0
2022-11-20T01:36:20.459Z,0
2022-11-20T01:36:40.498Z,0
2022-11-20T01:37:00.544Z,0
2022-11-20T01:37:20.582Z,0.1
2022-11-20T01:37:40.623Z,0.2
2022-11-20T01:38:00.644Z,0
2022-11-20T01:38:20.689Z,0
2022-11-20T01:38:40.694Z,0.9
2022-11-20T01:39:00.754Z,0.5
2022-11-20T01:39:21.141Z,0.1
2022-11-20T01:39:40.814Z,0
2022-11-20T01:40:00.893Z,0
2022-11-20T01:40:20.904Z,0
2022-11-20T01:40:40.949Z,0
2022-11-20T01:41:00.977Z,0
2022-11-20T01:41:21.007Z,0
2022-11-20T01:41:41.029Z,0
2022-11-20T01:42:03.488Z,0
2022-11-20T01:42:21.114Z,0
2022-11-20T01:42:41.174Z,0
2022-11-20T01:43:01.226Z,0
2022-11-20T01:43:21.256Z,0
2022-11-20T01:43:41.283Z,0
2022-11-20T01:44:01.334Z,0
2022-11-20T01:44:21.372Z,0
2022-11-20T01:44:41.388Z,0
2022-11-20T01:45:01.420Z,0
2022-11-20T01:45:21.440Z,0
2022-11-20T01:45:41.468Z,0
2022-11-20T01:46:01.497Z,0
2022-11-20T01:46:21.515Z,0
2022-11-20T01:46:41.578Z,0
2022-11-20T01:47:01.592Z,0
2022-11-20T01:47:21.616Z,0.1
2022-11-20T01:47:41.641Z,0.6
2022-11-20T01:48:01.673Z,0.3
2022-11-20T01:48:21.733Z,0.3
2022-11-20T01:48:41.751Z,0.5
2022-11-20T01:49:01.781Z,0.3
2022-11-20T01:49:22.028Z,0
2022-11-20T01:49:41.835Z,0
2022-11-20T01:50:01.856Z,0
2022-11-20T01:50:21.907Z,0.2
2022-11-20T01:50:41.924Z,0.3
2022-11-20T01:51:01.970Z,0.2
2022-11-20T01:51:21.997Z,0.7
2022-11-20T01:51:42.029Z,0.3
2022-11-20T01:52:02.070Z,0.2
2022-11-20T01:52:22.105Z,0.4
2022-11-20T01:52:42.133Z,0.2
2022-11-20T01:53:02.167Z,0.1
2022-11-20T01:53:22.180Z,0
2022-11-20T01:53:42.203Z,0
2022-11-20T01:54:02.251Z,0.2
2022-11-20T01:54:22.279Z,0.3
2022-11-20T01:54:42.338Z,0.2
2022-11-20T01:55:02.386Z,0.1
2022-11-20T01:55:22.423Z,0.1
2022-11-20T01:55:42.466Z,0.1
2022-11-20T01:56:02.497Z,0
2022-11-20T01:56:22.521Z,0
2022-11-20T01:56:42.560Z,0
2022-11-20T01:57:02.576Z,0
2022-11-20T01:57:22.620Z,0.1
2022-11-20T01:57:42.650Z,0.1
2022-11-20T01:58:02.707Z,0.1
2022-11-20T01:58:22.716Z,0.1
2022-11-20T01:58:42.755Z,0.1
2022-11-20T01:59:02.782Z,0
2022-11-20T01:59:23.322Z,0.1
2022-11-20T01:59:42.837Z,0
2022-11-20T02:00:02.870Z,0.1
2022-11-20T02:00:22.916Z,0.2
2022-11-20T02:00:42.933Z,0
2022-11-20T02:01:03.016Z,0
2022-11-20T02:01:23.078Z,0
2022-11-20T02:01:43.041Z,0.7
2022-11-20T02:02:03.045Z,0.4
2022-11-20T02:02:23.121Z,0.7
2022-11-20T02:02:43.154Z,0.3
2022-11-20T02:03:03.203Z,0.4
2022-11-20T02:03:23.240Z,0.3
2022-11-20T02:03:43.281Z,0.2
2022-11-20T02:04:03.327Z,0.3
2022-11-20T02:04:23.371Z,0.5
2022-11-20T02:04:43.384Z,0.4
2022-11-20T02:05:03.415Z,0.4
2022-11-20T02:05:23.473Z,0.3
2022-11-20T02:05:43.532Z,0.3
2022-11-20T02:06:03.558Z,0.1
2022-11-20T02:06:23.598Z,0
2022-11-20T02:06:43.629Z,0
2022-11-20T02:07:03.724Z,0
2022-11-20T02:07:23.752Z,0
2022-11-20T02:07:43.715Z,0.3
2022-11-20T02:08:03.760Z,0.3
2022-11-20T02:08:23.791Z,0.3
2022-11-20T02:08:43.826Z,0.5
2022-11-20T02:09:03.853Z,0.3
2022-11-20T02:09:24.121Z,0.2
2022-11-20T02:09:43.902Z,0.5
2022-11-20T02:10:03.926Z,0.5
2022-11-20T02:10:23.961Z,0.6
2022-11-20T02:10:44.000Z,0.7
2022-11-20T02:11:04.026Z,0.5
2022-11-20T02:11:24.052Z,0.5
2022-11-20T02:11:44.085Z,0.6
2022-11-20T02:12:04.144Z,0.2
2022-11-20T02:12:24.176Z,0.6
2022-11-20T02:12:44.208Z,0.6
2022-11-20T02:13:04.229Z,0.9
2022-11-20T02:13:24.256Z,0.5
2022-11-20T02:13:44.291Z,0.5
2022-11-20T02:14:04.314Z,0.9
2022-11-20T02:14:24.343Z,0.6
2022-11-20T02:14:44.375Z,0.8
2022-11-20T02:15:04.422Z,0.6
2022-11-20T02:15:29.010Z,1
2022-11-20T02:15:44.495Z,0.7
2022-11-20T02:16:04.550Z,0.6
2022-11-20T02:16:24.592Z,0.3
2022-11-20T02:16:44.653Z,0.3
2022-11-20T02:17:04.677Z,0.1
2022-11-20T02:17:24.709Z,0
2022-11-20T02:17:44.739Z,0
2022-11-20T02:18:04.771Z,0
2022-11-20T02:18:24.811Z,0
2022-11-20T02:18:44.831Z,0.2
2022-11-20T02:19:04.898Z,0.1
2022-11-20T02:19:24.929Z,0.3
2022-11-20T02:19:44.989Z,0.1
2022-11-20T02:20:05.023Z,0.1
2022-11-20T02:20:25.067Z,0.2
2022-11-20T02:20:45.111Z,0.2
2022-11-20T02:21:05.145Z,0.1
2022-11-20T02:21:25.207Z,0.1
2022-11-20T02:21:45.241Z,0
2022-11-20T02:22:05.311Z,0
2022-11-20T02:22:25.349Z,0.1
2022-11-20T02:22:45.385Z,0
2022-11-20T02:23:05.429Z,0
2022-11-20T02:23:25.462Z,0.1
2022-11-20T02:23:45.487Z,0.2
2022-11-20T02:24:05.520Z,0.2
2022-11-20T02:24:25.540Z,0.3
2022-11-20T02:24:45.595Z,0.2
2022-11-20T02:25:05.632Z,0.2
2022-11-20T02:25:25.659Z,0.1
2022-11-20T02:25:45.695Z,0.6
2022-11-20T02:26:05.731Z,0.7
2022-11-20T02:26:25.766Z,0.3
2022-11-20T02:26:45.812Z,0.3
2022-11-20T02:27:05.845Z,0.1
2022-11-20T02:27:25.884Z,0.2
2022-11-20T02:27:45.911Z,0.1
2022-11-20T02:28:05.928Z,0.1
2022-11-20T02:28:25.950Z,0.2
2022-11-20T02:28:45.981Z,0.1
2022-11-20T02:29:06.033Z,0.1
2022-11-20T02:29:26.086Z,0.3
2022-11-20T02:29:46.108Z,0.4
2022-11-20T02:30:06.145Z,0.2
2022-11-20T02:30:26.180Z,0.1
2022-11-20T02:30:46.211Z,0.1
2022-11-20T02:31:06.243Z,0.1
2022-11-20T02:31:26.266Z,0.1
2022-11-20T02:31:46.295Z,0.1
2022-11-20T02:32:06.336Z,0.1
2022-11-20T02:32:26.353Z,0.1
2022-11-20T02:32:46.383Z,0
2022-11-20T02:33:06.427Z,0.3
2022-11-20T02:33:26.464Z,0.1
2022-11-20T02:33:46.494Z,0
2022-11-20T02:34:06.539Z,0
2022-11-20T02:34:26.561Z,0.1
2022-11-20T02:34:46.580Z,0
2022-11-20T02:35:06.614Z,0
2022-11-20T02:35:26.624Z,0
2022-11-20T02:35:46.682Z,0
2022-11-20T02:36:06.731Z,0.1
2022-11-20T02:36:26.760Z,0.4
2022-11-20T02:36:46.796Z,0.6
2022-11-20T02:37:06.839Z,0.4
2022-11-20T02:37:26.859Z,0.2
2022-11-20T02:37:46.893Z,0.4
2022-11-20T02:38:06.916Z,0.4
2022-11-20T02:38:26.934Z,0.6
2022-11-20T02:38:46.980Z,1
2022-11-20T02:39:07.040Z,0.6
2022-11-20T02:39:27.080Z,0.4
2022-11-20T02:39:47.101Z,0.4
2022-11-20T02:40:07.130Z,0.2
2022-11-20T02:40:27.189Z,0.5
2022-11-20T02:40:51.414Z,0.2
2022-11-20T02:41:07.242Z,0.1
2022-11-20T02:41:27.274Z,0.1
2022-11-20T02:41:47.319Z,0
2022-11-20T02:42:07.345Z,0.1
2022-11-20T02:42:27.370Z,0.1
2022-11-20T02:42:47.418Z,0
2022-11-20T02:43:07.435Z,0.1
2022-11-20T02:43:27.467Z,0.2
2022-11-20T02:43:47.503Z,0.2
2022-11-20T02:44:07.530Z,0.2
2022-11-20T02:44:27.573Z,0.1
2022-11-20T02:44:47.590Z,0.2
2022-11-20T02:45:07.638Z,0.1
2022-11-20T02:45:27.670Z,0.3
2022-11-20T02:45:47.753Z,1.3
2022-11-20T02:46:07.820Z,1.1
2022-11-20T02:46:27.851Z,0.9
2022-11-20T02:46:47.894Z,0.4
2022-11-20T02:47:07.926Z,0.2
2022-11-20T02:47:27.942Z,0.4
2022-11-20T02:47:48.002Z,0.9
2022-11-20T02:48:08.035Z,1.1
2022-11-20T02:48:30.222Z,0.6
2022-11-20T02:48:48.118Z,0.3
2022-11-20T02:49:08.155Z,0.5
2022-11-20T02:49:28.220Z,0.6
2022-11-20T02:49:48.253Z,0.3
2022-11-20T02:50:08.290Z,0.2
2022-11-20T02:50:28.310Z,0.2
2022-11-20T02:50:48.355Z,0.1
2022-11-20T02:51:08.419Z,0.2
2022-11-20T02:51:28.446Z,0.2
2022-11-20T02:51:48.472Z,0.2
2022-11-20T02:52:08.499Z,0.2
2022-11-20T02:52:28.525Z,0.2
2022-11-20T02:52:48.578Z,0.3
2022-11-20T02:53:08.638Z,0.3
2022-11-20T02:53:28.659Z,0.3
2022-11-20T02:53:48.713Z,0.4
2022-11-20T02:54:08.738Z,0.3
2022-11-20T02:54:28.773Z,0.6
2022-11-20T02:54:48.785Z,0.6
2022-11-20T02:55:08.847Z,1.3
2022-11-20T02:55:28.892Z,0.8
2022-11-20T02:55:48.960Z,1
2022-11-20T02:56:08.994Z,0.8
2022-11-20T02:56:29.019Z,0.9
2022-11-20T02:56:49.064Z,0.8
2022-11-20T02:57:09.131Z,1.1
2022-11-20T02:57:29.154Z,1.4
2022-11-20T02:57:49.186Z,0.7
2022-11-20T02:58:09.221Z,0.5
2022-11-20T02:58:29.258Z,0.3
2022-11-20T02:58:49.310Z,0.4
2022-11-20T02:59:09.343Z,0.8
2022-11-20T02:59:29.365Z,0.5
2022-11-20T02:59:49.412Z,0.4
2022-11-20T03:00:09.456Z,0.8
2022-11-20T03:00:29.513Z,0.4
2022-11-20T03:00:49.531Z,1.1
2022-11-20T03:01:09.618Z,1.4
2022-11-20T03:01:29.765Z,1.3
2022-11-20T03:01:49.653Z,1.1
2022-11-20T03:02:09.682Z,0.7
2022-11-20T03:02:29.711Z,0.6
2022-11-20T03:02:49.745Z,1.1
2022-11-20T03:03:09.773Z,1.6
2022-11-20T03:03:29.826Z,1.7
2022-11-20T03:03:49.869Z,1.7
2022-11-20T03:04:09.906Z,1.3
2022-11-20T03:04:29.933Z,1
2022-11-20T03:04:49.953Z,0.5
2022-11-20T03:05:09.980Z,0.5
2022-11-20T03:05:29.999Z,1
2022-11-20T03:05:51.036Z,1.3
2022-11-20T03:07:05.276Z,0.8
2022-11-20T03:07:10.245Z,1.1
2022-11-20T03:07:30.294Z,1.1
2022-11-20T03:07:50.305Z,1.1
2022-11-20T03:08:10.303Z,1.3
2022-11-20T03:08:30.351Z,0.7
2022-11-20T03:08:50.397Z,0.6
2022-11-20T03:09:10.444Z,1
2022-11-20T03:09:30.469Z,0.6
2022-11-20T03:09:50.507Z,0.7
2022-11-20T03:10:10.539Z,0.6
2022-11-20T03:10:30.579Z,0.4
2022-11-20T03:11:50.725Z,0.3
2022-11-20T03:12:10.752Z,0.3
2022-11-20T03:12:30.751Z,0.4
2022-11-20T03:12:50.790Z,0.7
2022-11-20T03:13:10.803Z,0.6
2022-11-20T03:13:30.844Z,0.8
2022-11-20T03:13:50.867Z,0.6
2022-11-20T03:14:10.891Z,0.7
2022-11-20T03:14:30.946Z,0.8
2022-11-20T03:14:53.270Z,0.4
2022-11-20T03:15:11.039Z,0.4
2022-11-20T03:15:31.066Z,0.3
2022-11-20T03:15:51.096Z,0.4
2022-11-20T03:16:11.131Z,0.3
2022-11-20T03:16:31.166Z,0.4
2022-11-20T03:16:51.180Z,0.2
2022-11-20T03:17:11.210Z,0.2
2022-11-20T03:17:31.252Z,0.3
2022-11-20T03:17:51.291Z,0.3
2022-11-20T03:18:11.315Z,0.8
2022-11-20T03:18:31.363Z,0.7
2022-11-20T03:18:51.399Z,1
2022-11-20T03:19:11.431Z,1
2022-11-20T03:19:31.460Z,0.7
2022-11-20T03:19:51.491Z,0.3
2022-11-20T03:20:11.524Z,0.3
2022-11-20T03:20:31.586Z,0.3
2022-11-20T03:20:51.596Z,0.5
2022-11-20T03:21:11.649Z,0.9
2022-11-20T03:21:31.672Z,0.4
2022-11-20T03:21:51.717Z,0.5
2022-11-20T03:22:11.790Z,0.5
2022-11-20T03:22:31.827Z,0.7
2022-11-20T03:22:51.866Z,0.6
2022-11-20T03:23:11.912Z,0.5
2022-11-20T03:23:31.934Z,0.5
2022-11-20T03:23:51.991Z,0.3
2022-11-20T03:24:12.016Z,0.1
2022-11-20T03:24:32.059Z,0.4
2022-11-20T03:24:52.104Z,0.4
2022-11-20T03:25:12.126Z,0.1
2022-11-20T03:25:32.159Z,0
2022-11-20T03:25:52.202Z,0
2022-11-20T03:26:12.263Z,0
2022-11-20T03:26:32.320Z,0
2022-11-20T03:26:52.335Z,0
2022-11-20T03:27:12.372Z,0
2022-11-20T03:27:32.388Z,0
2022-11-20T03:27:52.423Z,0
2022-11-20T03:28:12.454Z,0.2
2022-11-20T03:28:32.470Z,0.1
2022-11-20T03:28:52.506Z,0.3
2022-11-20T03:29:12.541Z,0.8
2022-11-20T03:29:32.576Z,0.6
2022-11-20T03:29:52.620Z,0.3
2022-11-20T03:30:12.680Z,0.1
2022-11-20T03:30:32.715Z,0.1
2022-11-20T03:30:52.751Z,0.1
2022-11-20T03:31:12.779Z,0.3
2022-11-20T03:31:32.803Z,0.5
2022-11-20T03:31:52.866Z,0.5
2022-11-20T03:32:12.884Z,0.5
2022-11-20T03:32:32.916Z,0.3
2022-11-20T03:32:52.949Z,0.2
2022-11-20T03:33:12.969Z,0.4
2022-11-20T03:33:33.003Z,0.8
2022-11-20T03:33:53.028Z,0.4
2022-11-20T03:34:13.040Z,0.1
2022-11-20T03:34:33.097Z,0.2
2022-11-20T03:34:53.113Z,0.3
2022-11-20T03:35:13.135Z,0.1
2022-11-20T03:35:33.180Z,0.3
2022-11-20T03:35:53.191Z,0.4
2022-11-20T03:36:13.241Z,0.3
2022-11-20T03:36:33.267Z,0.4
2022-11-20T03:36:53.305Z,0.2
2022-11-20T03:37:13.348Z,0.1
2022-11-20T03:37:33.379Z,0
2022-11-20T03:37:53.405Z,0
2022-11-20T03:38:13.450Z,0
2022-11-20T03:38:33.478Z,0
2022-11-20T03:38:53.520Z,0.1
2022-11-20T03:39:13.574Z,0
2022-11-20T03:39:33.600Z,0
2022-11-20T03:39:53.639Z,0
2022-11-20T03:40:13.673Z,0
2022-11-20T03:40:33.733Z,0.1
2022-11-20T03:40:53.756Z,0.1
2022-11-20T03:41:13.783Z,0
2022-11-20T03:41:33.814Z,0
2022-11-20T03:41:53.835Z,0.3
2022-11-20T03:42:13.924Z,0.4
2022-11-20T03:42:33.948Z,0.4
2022-11-20T03:42:53.996Z,0.2
2022-11-20T03:43:14.015Z,0
2022-11-20T03:43:34.144Z,0.4
2022-11-20T03:43:54.122Z,0.4
2022-11-20T03:44:14.155Z,0.4
2022-11-20T03:44:34.203Z,0.1
2022-11-20T03:44:54.240Z,0.1
2022-11-20T03:45:14.323Z,0.1
2022-11-20T03:45:34.307Z,0.1
2022-11-20T03:45:54.346Z,0.2
2022-11-20T03:46:14.413Z,0.3
2022-11-20T03:46:34.433Z,0
2022-11-20T03:46:54.453Z,0.1
2022-11-20T03:47:14.515Z,0.4
2022-11-20T03:47:34.542Z,0.1
2022-11-20T03:47:54.595Z,0
2022-11-20T03:48:14.596Z,0
2022-11-20T03:48:34.623Z,0
2022-11-20T03:48:54.660Z,0
2022-11-20T03:49:14.691Z,0
2022-11-20T03:49:34.730Z,0.1
2022-11-20T03:49:54.742Z,0.3
2022-11-20T03:50:14.786Z,0.3
2022-11-20T03:50:34.809Z,0.4
2022-11-20T03:50:54.836Z,0.4
2022-11-20T03:51:14.872Z,0.3
2022-11-20T03:51:34.906Z,0.7
2022-11-20T03:51:54.956Z,1
2022-11-20T03:52:14.988Z,0.5
2022-11-20T03:52:35.022Z,0.5
2022-11-20T03:52:55.151Z,0.5
2022-11-20T03:53:15.087Z,0.5
2022-11-20T03:53:35.133Z,0.4
2022-11-20T03:53:55.173Z,0.5
2022-11-20T03:54:15.208Z,0.4
2022-11-20T03:54:35.242Z,0.5
2022-11-20T03:54:55.284Z,0.4
2022-11-20T03:55:15.317Z,0.3
2022-11-20T03:55:35.345Z,0.4
2022-11-20T03:55:55.363Z,0.6
2022-11-20T03:56:15.397Z,0.6
2022-11-20T03:56:35.417Z,0.6
2022-11-20T03:56:55.440Z,0.7
2022-11-20T03:57:15.480Z,0.7
2022-11-20T03:57:35.494Z,0.7
2022-11-20T03:57:55.525Z,0.7
2022-11-20T03:58:15.552Z,0.7
2022-11-20T03:58:35.581Z,0.8
2022-11-20T03:58:55.607Z,0.5
2022-11-20T03:59:15.630Z,0.8
2022-11-20T03:59:35.689Z,0.5
2022-11-20T03:59:55.756Z,0.4
2022-11-20T04:00:15.739Z,0.4
2022-11-20T04:00:35.816Z,0.7
2022-11-20T04:00:55.845Z,0.8
2022-11-20T04:01:15.944Z,0.7
2022-11-20T04:01:36.046Z,0.8
2022-11-20T04:01:55.975Z,0.7
2022-11-20T04:02:16.025Z,0.6
2022-11-20T04:02:36.029Z,1
2022-11-20T04:02:56.046Z,1
2022-11-20T04:03:16.109Z,0.8
2022-11-20T04:03:36.159Z,0.7
2022-11-20T04:03:56.225Z,0.8
2022-11-20T04:04:16.287Z,1
2022-11-20T04:04:36.357Z,0.8
2022-11-20T04:04:56.379Z,0.8
2022-11-20T04:05:16.472Z,0.8
2022-11-20T04:05:36.434Z,0.7
2022-11-20T04:05:56.451Z,0.9
2022-11-20T04:06:16.496Z,0.8
2022-11-20T04:06:36.519Z,0.5
2022-11-20T04:06:56.666Z,0.4
2022-11-20T04:07:16.776Z,0.4
2022-11-20T04:07:36.650Z,0.4
2022-11-20T04:07:56.610Z,0.3
2022-11-20T04:08:16.624Z,0.3
2022-11-20T04:08:36.645Z,0.4
2022-11-20T04:08:56.698Z,1
2022-11-20T04:09:16.719Z,0.8
2022-11-20T04:09:36.766Z,0.7
2022-11-20T04:09:56.815Z,0.7
2022-11-20T04:10:16.863Z,0.7
2022-11-20T04:10:36.878Z,1.3
2022-11-20T04:10:56.927Z,1.9
2022-11-20T04:11:16.972Z,1.3
2022-11-20T04:11:37.016Z,0.8
2022-11-20T04:11:57.062Z,0.8
2022-11-20T04:12:17.080Z,1
2022-11-20T04:12:37.103Z,0.7
2022-11-20T04:12:57.141Z,0.5
2022-11-20T04:13:17.146Z,0.4
2022-11-20T04:13:37.187Z,0.4
2022-11-20T04:13:57.221Z,0.6
2022-11-20T04:14:17.241Z,0.7
2022-11-20T04:14:37.255Z,0.4
2022-11-20T04:14:57.288Z,0.4
2022-11-20T04:15:17.308Z,0.4
2022-11-20T04:15:38.579Z,0.4
2022-11-20T04:15:57.398Z,0.4
2022-11-20T04:16:17.436Z,0.7
2022-11-20T04:16:37.453Z,0.4
2022-11-20T04:16:57.508Z,0.4
2022-11-20T04:17:17.530Z,0.2
2022-11-20T04:17:37.554Z,0.3
2022-11-20T04:17:57.611Z,0.3
2022-11-20T04:18:17.682Z,0.4
2022-11-20T04:18:37.719Z,0.4
2022-11-20T04:18:57.786Z,0.3
2022-11-20T04:19:17.884Z,0.4
2022-11-20T04:19:37.828Z,0.4
2022-11-20T04:19:57.857Z,0.4
2022-11-20T04:20:17.869Z,0.6
2022-11-20T04:20:37.891Z,0.3
2022-11-20T04:20:57.928Z,0.4
2022-11-20T04:21:17.961Z,0.3
2022-11-20T04:21:38.021Z,0.2
2022-11-20T04:21:58.080Z,0.3
2022-11-20T04:22:18.131Z,0.2
2022-11-20T04:22:38.148Z,0.3
2022-11-20T04:22:58.183Z,0.4
2022-11-20T04:23:18.204Z,0.4
2022-11-20T04:23:38.241Z,0.3
2022-11-20T04:23:58.264Z,0.3
2022-11-20T04:24:18.301Z,0.4
2022-11-20T04:24:38.356Z,0.4
2022-11-20T04:24:58.387Z,0.3
2022-11-20T04:25:18.418Z,0.3
2022-11-20T04:25:38.447Z,0.2
2022-11-20T04:25:58.475Z,0.2
2022-11-20T04:26:18.501Z,0.6
2022-11-20T04:26:38.532Z,0.4
2022-11-20T04:26:58.571Z,0.3
2022-11-20T04:27:18.636Z,0.2
2022-11-20T04:27:38.645Z,0.3
2022-11-20T04:27:58.674Z,0.3
2022-11-20T04:28:18.701Z,0.3
2022-11-20T04:28:38.750Z,0.1
2022-11-20T04:28:58.751Z,0.1
2022-11-20T04:29:19.125Z,0.2
2022-11-20T04:29:38.805Z,0.6
2022-11-20T04:29:58.845Z,0.3
2022-11-20T04:30:18.892Z,0.1
2022-11-20T04:30:38.911Z,0.3
2022-11-20T04:30:58.953Z,0.1
2022-11-20T04:31:19.993Z,0.1
2022-11-20T04:31:39.024Z,0.2
2022-11-20T04:31:59.069Z,0.1
2022-11-20T04:32:19.093Z,0.1
2022-11-20T04:32:39.134Z,0
2022-11-20T04:32:59.209Z,0
2022-11-20T04:33:19.271Z,0
2022-11-20T04:33:39.318Z,0.1
2022-11-20T04:33:59.358Z,0
2022-11-20T04:34:19.415Z,0
2022-11-20T04:34:39.465Z,0.1
2022-11-20T04:34:59.514Z,0.4
2022-11-20T04:35:19.540Z,0.2
2022-11-20T04:35:39.567Z,0.4
2022-11-20T04:35:59.587Z,0.4
2022-11-20T04:36:19.644Z,0.5
2022-11-20T04:36:39.705Z,0.5
2022-11-20T04:36:59.734Z,0.6
2022-11-20T04:37:19.769Z,0.5
2022-11-20T04:37:39.814Z,0.5
2022-11-20T04:37:59.826Z,0.3
2022-11-20T04:38:19.870Z,0.3
2022-11-20T04:38:39.911Z,0.4
2022-11-20T04:38:59.995Z,0.2
2022-11-20T04:39:20.468Z,0.4
2022-11-20T04:39:40.055Z,0.5
2022-11-20T04:40:00.089Z,0.4
2022-11-20T04:40:20.120Z,0.5
2022-11-20T04:40:40.148Z,0.5
2022-11-20T04:41:00.178Z,0.5
2022-11-20T04:41:20.216Z,0.4
2022-11-20T04:41:40.270Z,0.3
2022-11-20T04:42:00.316Z,0.4
2022-11-20T04:42:20.395Z,0.3
2022-11-20T04:42:40.427Z,0.5
2022-11-20T04:43:00.460Z,0.9
2022-11-20T04:43:20.502Z,0.7
2022-11-20T04:43:40.552Z,0.6
2022-11-20T04:44:00.966Z,0.6
2022-11-20T04:44:20.598Z,0.5
2022-11-20T04:44:40.647Z,0.5